createdAt,value
2022-09-09T00:00:59.848Z,979.51
2022-09-09T00:02:23.842Z,979.52
2022-09-09T00:02:59.910Z,979.50
2022-09-09T00:03:59.812Z,979.49
2022-09-09T00:04:59.791Z,979.47
2022-09-09T00:05:59.777Z,979.46
2022-09-09T00:06:59.816Z,979.47
2022-09-09T00:07:59.794Z,979.48
2022-09-09T00:08:59.754Z,979.46
2022-09-09T00:10:00.747Z,979.46
2022-09-09T00:10:59.784Z,979.45
2022-09-09T00:11:59.716Z,979.44
2022-09-09T00:12:59.743Z,979.45
2022-09-09T00:13:59.697Z,979.45
2022-09-09T00:14:59.688Z,979.45
2022-09-09T00:15:59.747Z,979.43
2022-09-09T00:16:59.663Z,979.44
2022-09-09T00:17:59.700Z,979.46
2022-09-09T00:18:59.650Z,979.46
2022-09-09T00:19:59.690Z,979.44
2022-09-09T00:20:59.626Z,979.47
2022-09-09T00:21:59.618Z,979.46
2022-09-09T00:22:59.604Z,979.48
2022-09-09T00:23:59.592Z,979.50
2022-09-09T00:24:59.596Z,979.48
2022-09-09T00:25:59.597Z,979.48
2022-09-09T00:26:59.571Z,979.49
2022-09-09T00:27:59.554Z,979.52
2022-09-09T00:28:59.544Z,979.50
2022-09-09T00:29:59.553Z,979.50
2022-09-09T00:30:59.547Z,979.50
2022-09-09T00:31:59.531Z,979.51
2022-09-09T00:32:59.516Z,979.49
2022-09-09T00:33:59.491Z,979.49
2022-09-09T00:34:59.480Z,979.48
2022-09-09T00:35:59.476Z,979.46
2022-09-09T00:36:59.459Z,979.45
2022-09-09T00:37:59.467Z,979.44
2022-09-09T00:38:59.439Z,979.43
2022-09-09T00:39:59.495Z,979.44
2022-09-09T00:40:59.419Z,979.44
2022-09-09T00:41:59.405Z,979.46
2022-09-09T00:42:59.399Z,979.46
2022-09-09T00:43:59.413Z,979.46
2022-09-09T00:44:59.393Z,979.47
2022-09-09T00:45:59.460Z,979.47
2022-09-09T00:46:59.359Z,979.48
2022-09-09T00:47:59.370Z,979.47
2022-09-09T00:48:59.338Z,979.48
2022-09-09T00:50:01.281Z,979.49
2022-09-09T00:50:59.336Z,979.51
2022-09-09T00:51:59.310Z,979.49
2022-09-09T00:52:59.345Z,979.48
2022-09-09T00:53:59.279Z,979.49
2022-09-09T00:54:59.323Z,979.51
2022-09-09T00:55:59.268Z,979.50
2022-09-09T00:56:59.262Z,979.48
2022-09-09T00:57:59.248Z,979.49
2022-09-09T00:58:59.245Z,979.49
2022-09-09T00:59:59.223Z,979.49
2022-09-09T01:00:59.237Z,979.50
2022-09-09T01:01:59.290Z,979.53
2022-09-09T01:02:59.334Z,979.54
2022-09-09T01:03:59.181Z,979.56
2022-09-09T01:04:59.173Z,979.55
2022-09-09T01:05:59.184Z,979.56
2022-09-09T01:06:59.148Z,979.56
2022-09-09T01:07:59.141Z,979.55
2022-09-09T01:08:59.132Z,979.55
2022-09-09T01:09:59.133Z,979.53
2022-09-09T01:10:59.115Z,979.52
2022-09-09T01:11:59.112Z,979.53
2022-09-09T01:12:59.087Z,979.54
2022-09-09T01:13:59.097Z,979.57
2022-09-09T01:14:59.066Z,979.56
2022-09-09T01:16:01.860Z,979.55
2022-09-09T01:16:59.108Z,979.53
2022-09-09T01:17:59.034Z,979.53
2022-09-09T01:18:59.025Z,979.55
2022-09-09T01:19:59.025Z,979.55
2022-09-09T01:20:59.004Z,979.55
2022-09-09T01:21:58.995Z,979.56
2022-09-09T01:22:59.010Z,979.56
2022-09-09T01:23:58.969Z,979.57
2022-09-09T01:24:58.970Z,979.56
2022-09-09T01:25:58.958Z,979.55
2022-09-09T01:26:58.951Z,979.54
2022-09-09T01:27:58.936Z,979.55
2022-09-09T01:28:58.953Z,979.56
2022-09-09T01:29:58.911Z,979.55
2022-09-09T01:30:58.930Z,979.53
2022-09-09T01:31:58.895Z,979.53
2022-09-09T01:32:58.889Z,979.52
2022-09-09T01:33:58.883Z,979.51
2022-09-09T01:34:58.874Z,979.51
2022-09-09T01:35:58.849Z,979.49
2022-09-09T01:36:58.837Z,979.46
2022-09-09T01:37:58.845Z,979.47
2022-09-09T01:38:58.824Z,979.49
2022-09-09T01:39:58.931Z,979.49
2022-09-09T01:40:58.797Z,979.50
2022-09-09T01:41:58.800Z,979.47
2022-09-09T01:42:58.795Z,979.45
2022-09-09T01:43:58.786Z,979.44
2022-09-09T01:44:58.758Z,979.43
2022-09-09T01:45:58.807Z,979.45
2022-09-09T01:46:58.733Z,979.46
2022-09-09T01:47:58.722Z,979.48
2022-09-09T01:48:58.718Z,979.49
2022-09-09T01:49:58.704Z,979.50
2022-09-09T01:50:58.690Z,979.50
2022-09-09T01:51:58.699Z,979.50
2022-09-09T01:52:58.673Z,979.51
2022-09-09T01:53:58.661Z,979.51
2022-09-09T01:54:58.684Z,979.53
2022-09-09T01:55:58.655Z,979.54
2022-09-09T01:56:58.649Z,979.54
2022-09-09T01:57:58.615Z,979.56
2022-09-09T01:58:58.609Z,979.58
2022-09-09T01:59:58.607Z,979.58
2022-09-09T02:00:58.697Z,979.59
2022-09-09T02:02:05.162Z,979.59
2022-09-09T02:02:58.565Z,979.60
2022-09-09T02:03:58.556Z,979.61
2022-09-09T02:04:58.555Z,979.62
2022-09-09T02:05:58.535Z,979.64
2022-09-09T02:06:58.549Z,979.67
2022-09-09T02:07:58.557Z,979.66
2022-09-09T02:08:58.541Z,979.65
2022-09-09T02:09:58.541Z,979.68
2022-09-09T02:10:58.483Z,979.66
2022-09-09T02:11:58.495Z,979.64
2022-09-09T02:12:58.473Z,979.62
2022-09-09T02:13:58.466Z,979.64
2022-09-09T02:14:58.445Z,979.65
2022-09-09T02:15:58.496Z,979.65
2022-09-09T02:16:58.518Z,979.66
2022-09-09T02:17:58.434Z,979.64
2022-09-09T02:18:58.413Z,979.62
2022-09-09T02:19:58.393Z,979.62
2022-09-09T02:20:58.386Z,979.65
2022-09-09T02:21:58.388Z,979.66
2022-09-09T02:22:58.423Z,979.68
2022-09-09T02:23:58.348Z,979.68
2022-09-09T02:24:58.344Z,979.67
2022-09-09T02:25:58.327Z,979.66
2022-09-09T02:26:58.339Z,979.66
2022-09-09T02:27:58.313Z,979.68
2022-09-09T02:28:58.306Z,979.68
2022-09-09T02:29:58.288Z,979.67
2022-09-09T02:30:58.375Z,979.68
2022-09-09T02:31:58.269Z,979.68
2022-09-09T02:32:58.283Z,979.68
2022-09-09T02:33:58.258Z,979.67
2022-09-09T02:34:58.258Z,979.66
2022-09-09T02:35:58.230Z,979.65
2022-09-09T02:36:58.222Z,979.66
2022-09-09T02:37:58.203Z,979.67
2022-09-09T02:38:58.206Z,979.67
2022-09-09T02:39:58.246Z,979.67
2022-09-09T02:40:58.234Z,979.67
2022-09-09T02:41:58.170Z,979.68
2022-09-09T02:42:58.159Z,979.68
2022-09-09T02:43:58.138Z,979.66
2022-09-09T02:44:58.136Z,979.65
2022-09-09T02:45:58.203Z,979.64
2022-09-09T02:46:58.137Z,979.63
2022-09-09T02:47:58.104Z,979.65
2022-09-09T02:48:58.095Z,979.66
2022-09-09T02:49:58.106Z,979.66
2022-09-09T02:50:58.067Z,979.66
2022-09-09T02:51:58.093Z,979.68
2022-09-09T02:52:58.057Z,979.69
2022-09-09T02:53:58.065Z,979.68
2022-09-09T02:54:58.031Z,979.67
2022-09-09T02:55:58.014Z,979.66
2022-09-09T02:56:58.008Z,979.67
2022-09-09T02:57:58.029Z,979.66
2022-09-09T02:58:57.997Z,979.65
2022-09-09T02:59:57.975Z,979.65
2022-09-09T03:00:58.017Z,979.63
2022-09-09T03:01:57.989Z,979.60
2022-09-09T03:02:57.958Z,979.59
2022-09-09T03:03:57.960Z,979.58
2022-09-09T03:04:57.930Z,979.57
2022-09-09T03:05:57.931Z,979.59
2022-09-09T03:06:57.906Z,979.59
2022-09-09T03:07:57.894Z,979.59
2022-09-09T03:08:57.912Z,979.60
2022-09-09T03:09:57.904Z,979.59
2022-09-09T03:10:57.865Z,979.62
2022-09-09T03:11:57.859Z,979.65
2022-09-09T03:12:57.851Z,979.68
2022-09-09T03:13:57.831Z,979.70
2022-09-09T03:14:57.822Z,979.71
2022-09-09T03:15:57.844Z,979.70
2022-09-09T03:16:57.832Z,979.70
2022-09-09T03:17:57.795Z,979.71
2022-09-09T03:18:57.780Z,979.71
2022-09-09T03:19:57.803Z,979.72
2022-09-09T03:20:57.777Z,979.72
2022-09-09T03:21:57.747Z,979.71
2022-09-09T03:22:57.759Z,979.68
2022-09-09T03:23:57.720Z,979.67
2022-09-09T03:24:57.717Z,979.67
2022-09-09T03:25:57.710Z,979.66
2022-09-09T03:26:57.696Z,979.65
2022-09-09T03:27:57.680Z,979.64
2022-09-09T03:28:57.709Z,979.61
2022-09-09T03:29:57.670Z,979.59
2022-09-09T03:30:57.664Z,979.57
2022-09-09T03:31:57.705Z,979.56
2022-09-09T03:32:57.655Z,979.57
2022-09-09T03:33:57.622Z,979.56
2022-09-09T03:34:57.656Z,979.55
2022-09-09T03:35:57.625Z,979.55
2022-09-09T03:36:57.592Z,979.55
2022-09-09T03:37:57.579Z,979.56
2022-09-09T03:38:57.598Z,979.56
2022-09-09T03:39:57.649Z,979.56
2022-09-09T03:40:57.559Z,979.55
2022-09-09T03:41:57.558Z,979.53
2022-09-09T03:42:57.530Z,979.51
2022-09-09T03:43:57.564Z,979.50
2022-09-09T03:44:57.531Z,979.49
2022-09-09T03:45:57.557Z,979.47
2022-09-09T03:46:57.493Z,979.47
2022-09-09T03:47:57.480Z,979.45
2022-09-09T03:48:57.468Z,979.46
2022-09-09T03:49:57.483Z,979.46
2022-09-09T03:50:57.475Z,979.45
2022-09-09T03:51:57.450Z,979.45
2022-09-09T03:52:57.421Z,979.46
2022-09-09T03:53:57.484Z,979.46
2022-09-09T03:54:57.409Z,979.44
2022-09-09T03:55:57.429Z,979.43
2022-09-09T03:56:57.383Z,979.40
2022-09-09T03:57:57.385Z,979.40
2022-09-09T03:58:57.364Z,979.39
2022-09-09T03:59:57.367Z,979.39
2022-09-09T04:00:57.439Z,979.38
2022-09-09T04:01:57.504Z,979.37
2022-09-09T04:02:57.319Z,979.36
2022-09-09T04:03:57.313Z,979.35
2022-09-09T04:04:57.303Z,979.36
2022-09-09T04:05:57.289Z,979.37
2022-09-09T04:06:57.311Z,979.36
2022-09-09T04:07:57.289Z,979.35
2022-09-09T04:08:57.258Z,979.35
2022-09-09T04:09:57.256Z,979.36
2022-09-09T04:10:57.236Z,979.34
2022-09-09T04:11:57.228Z,979.33
2022-09-09T04:12:57.238Z,979.34
2022-09-09T04:13:57.213Z,979.36
2022-09-09T04:14:57.203Z,979.37
2022-09-09T04:16:03.805Z,979.37
2022-09-09T04:16:57.288Z,979.38
2022-09-09T04:17:57.170Z,979.38
2022-09-09T04:18:57.260Z,979.37
2022-09-09T04:19:57.149Z,979.37
2022-09-09T04:20:57.144Z,979.38
2022-09-09T04:21:57.127Z,979.38
2022-09-09T04:22:57.064Z,979.39
2022-09-09T04:23:57.108Z,979.40
2022-09-09T04:24:57.079Z,979.41
2022-09-09T04:25:57.026Z,979.40
2022-09-09T04:26:57.037Z,979.38
2022-09-09T04:27:57.010Z,979.37
2022-09-09T04:28:57.046Z,979.37
2022-09-09T04:29:57.040Z,979.36
2022-09-09T04:30:57.004Z,979.35
2022-09-09T04:31:57.030Z,979.33
2022-09-09T04:32:56.954Z,979.35
2022-09-09T04:33:56.949Z,979.38
2022-09-09T04:34:56.936Z,979.38
2022-09-09T04:35:56.952Z,979.36
2022-09-09T04:36:56.934Z,979.36
2022-09-09T04:37:56.904Z,979.36
2022-09-09T04:38:56.903Z,979.36
2022-09-09T04:39:56.959Z,979.37
2022-09-09T04:40:56.875Z,979.38
2022-09-09T04:41:56.897Z,979.39
2022-09-09T04:42:56.873Z,979.41
2022-09-09T04:43:56.848Z,979.41
2022-09-09T04:44:56.868Z,979.42
2022-09-09T04:45:56.963Z,979.42
2022-09-09T04:46:56.877Z,979.43
2022-09-09T04:47:56.809Z,979.42
2022-09-09T04:48:56.792Z,979.42
2022-09-09T04:49:56.790Z,979.42
2022-09-09T04:50:56.774Z,979.41
2022-09-09T04:51:56.765Z,979.42
2022-09-09T04:52:56.773Z,979.43
2022-09-09T04:53:56.738Z,979.44
2022-09-09T04:54:56.753Z,979.43
2022-09-09T04:55:56.721Z,979.40
2022-09-09T04:56:56.742Z,979.39
2022-09-09T04:57:56.705Z,979.41
2022-09-09T04:58:56.717Z,979.42
2022-09-09T04:59:56.679Z,979.44
2022-09-09T05:00:56.738Z,979.43
2022-09-09T05:01:56.703Z,979.42
2022-09-09T05:02:56.660Z,979.41
2022-09-09T05:03:56.700Z,979.41
2022-09-09T05:04:56.640Z,979.42
2022-09-09T05:05:56.659Z,979.44
2022-09-09T05:06:56.633Z,979.45
2022-09-09T05:07:56.599Z,979.44
2022-09-09T05:08:56.606Z,979.44
2022-09-09T05:09:56.595Z,979.42
2022-09-09T05:10:56.561Z,979.41
2022-09-09T05:11:56.586Z,979.42
2022-09-09T05:12:56.550Z,979.44
2022-09-09T05:13:56.550Z,979.44
2022-09-09T05:14:56.519Z,979.47
2022-09-09T05:15:56.596Z,979.49
2022-09-09T05:16:56.566Z,979.48
2022-09-09T05:17:56.503Z,979.48
2022-09-09T05:18:56.479Z,979.48
2022-09-09T05:19:56.483Z,979.47
2022-09-09T05:20:56.459Z,979.48
2022-09-09T05:21:56.481Z,979.48
2022-09-09T05:22:56.440Z,979.50
2022-09-09T05:23:56.426Z,979.50
2022-09-09T05:24:56.418Z,979.48
2022-09-09T05:25:56.420Z,979.48
2022-09-09T05:26:56.396Z,979.48
2022-09-09T05:27:56.451Z,979.51
2022-09-09T05:28:56.383Z,979.53
2022-09-09T05:29:56.379Z,979.54
2022-09-09T05:30:56.373Z,979.51
2022-09-09T05:31:56.464Z,979.54
2022-09-09T05:32:56.337Z,979.56
2022-09-09T05:33:56.371Z,979.59
2022-09-09T05:34:56.330Z,979.59
2022-09-09T05:35:56.320Z,979.59
2022-09-09T05:36:56.299Z,979.60
2022-09-09T05:37:56.293Z,979.60
2022-09-09T05:38:56.284Z,979.62
2022-09-09T05:39:56.353Z,979.63
2022-09-09T05:40:56.272Z,979.62
2022-09-09T05:41:56.243Z,979.62
2022-09-09T05:42:56.233Z,979.60
2022-09-09T05:43:56.232Z,979.61
2022-09-09T05:44:56.216Z,979.62
2022-09-09T05:45:56.225Z,979.61
2022-09-09T05:46:56.241Z,979.63
2022-09-09T05:47:56.181Z,979.64
2022-09-09T05:48:56.184Z,979.62
2022-09-09T05:49:56.156Z,979.64
2022-09-09T05:50:56.168Z,979.64
2022-09-09T05:51:56.151Z,979.63
2022-09-09T05:52:56.123Z,979.62
2022-09-09T05:53:56.147Z,979.61
2022-09-09T05:54:56.101Z,979.59
2022-09-09T05:55:56.103Z,979.61
2022-09-09T05:56:56.117Z,979.61
2022-09-09T05:57:56.076Z,979.63
2022-09-09T05:58:56.077Z,979.64
2022-09-09T05:59:56.064Z,979.66
2022-09-09T06:00:56.044Z,979.66
2022-09-09T06:01:56.189Z,979.65
2022-09-09T06:02:56.158Z,979.67
2022-09-09T06:03:56.028Z,979.69
2022-09-09T06:05:00.017Z,979.71
2022-09-09T06:05:56.003Z,979.71
2022-09-09T06:06:55.981Z,979.72
2022-09-09T06:07:56.004Z,979.70
2022-09-09T06:08:55.994Z,979.71
2022-09-09T06:09:55.974Z,979.71
2022-09-09T06:10:55.942Z,979.69
2022-09-09T06:11:55.948Z,979.70
2022-09-09T06:12:55.926Z,979.70
2022-09-09T06:13:55.923Z,979.69
2022-09-09T06:14:55.905Z,979.67
2022-09-09T06:15:55.972Z,979.62
2022-09-09T06:16:55.868Z,979.61
2022-09-09T06:17:55.887Z,979.63
2022-09-09T06:18:55.842Z,979.66
2022-09-09T06:19:55.856Z,979.61
2022-09-09T06:20:55.895Z,979.63
2022-09-09T06:21:55.836Z,979.64
2022-09-09T06:22:55.813Z,979.66
2022-09-09T06:24:00.717Z,979.60
2022-09-09T06:24:55.800Z,979.58
2022-09-09T06:25:55.784Z,979.60
2022-09-09T06:26:55.784Z,979.61
2022-09-09T06:27:55.774Z,979.62
2022-09-09T06:28:55.770Z,979.61
2022-09-09T06:29:55.728Z,979.64
2022-09-09T06:30:55.721Z,979.66
2022-09-09T06:31:55.762Z,979.69
2022-09-09T06:32:55.741Z,979.72
2022-09-09T06:33:55.784Z,979.75
2022-09-09T06:34:55.693Z,979.76
2022-09-09T06:35:55.671Z,979.79
2022-09-09T06:36:55.662Z,979.78
2022-09-09T06:37:55.661Z,979.81
2022-09-09T06:38:55.659Z,979.83
2022-09-09T06:39:55.736Z,979.84
2022-09-09T06:40:55.631Z,979.83
2022-09-09T06:41:55.612Z,979.83
2022-09-09T06:42:55.596Z,979.85
2022-09-09T06:43:55.603Z,979.87
2022-09-09T06:44:55.573Z,979.87
2022-09-09T06:45:55.571Z,979.91
2022-09-09T06:46:55.599Z,979.92
2022-09-09T06:47:55.566Z,979.90
2022-09-09T06:48:55.563Z,979.94
2022-09-09T06:49:55.536Z,979.97
2022-09-09T06:50:55.532Z,979.96
2022-09-09T06:51:55.533Z,979.93
2022-09-09T06:52:55.503Z,979.93
2022-09-09T06:53:55.515Z,979.93
2022-09-09T06:54:55.516Z,979.96
2022-09-09T06:55:55.479Z,980.00
2022-09-09T06:56:55.464Z,980.01
2022-09-09T06:57:55.455Z,980.02
2022-09-09T06:58:55.455Z,980.01
2022-09-09T06:59:55.474Z,980.00
2022-09-09T07:00:55.501Z,980.02
2022-09-09T07:01:56.250Z,980.02
2022-09-09T07:02:55.398Z,979.98
2022-09-09T07:03:55.396Z,980.01
2022-09-09T07:04:55.390Z,980.02
2022-09-09T07:05:55.404Z,980.04
2022-09-09T07:06:55.374Z,980.09
2022-09-09T07:07:55.361Z,980.03
2022-09-09T07:08:57.010Z,980.02
2022-09-09T07:09:55.324Z,980.00
2022-09-09T07:10:55.343Z,979.98
2022-09-09T07:11:55.313Z,980.04
2022-09-09T07:12:55.294Z,980.07
2022-09-09T07:13:55.301Z,980.04
2022-09-09T07:14:55.280Z,980.03
2022-09-09T07:15:55.332Z,980.05
2022-09-09T07:16:59.357Z,980.07
2022-09-09T07:17:55.254Z,980.04
2022-09-09T07:18:55.232Z,980.02
2022-09-09T07:19:55.237Z,980.02
2022-09-09T07:20:55.305Z,980.02
2022-09-09T07:21:55.216Z,980.04
2022-09-09T07:22:55.218Z,980.01
2022-09-09T07:23:55.496Z,980.07
2022-09-09T07:24:55.183Z,980.05
2022-09-09T07:25:55.172Z,980.08
2022-09-09T07:26:55.154Z,980.07
2022-09-09T07:27:55.181Z,980.10
2022-09-09T07:28:55.130Z,980.15
2022-09-09T07:29:55.138Z,980.10
2022-09-09T07:30:55.195Z,980.11
2022-09-09T07:31:55.108Z,980.10
2022-09-09T07:32:55.124Z,980.12
2022-09-09T07:33:55.108Z,980.11
2022-09-09T07:34:55.064Z,980.11
2022-09-09T07:35:55.068Z,980.13
2022-09-09T07:36:55.045Z,980.13
2022-09-09T07:37:55.050Z,980.10
2022-09-09T07:38:55.033Z,980.12
2022-09-09T07:39:55.108Z,980.09
2022-09-09T07:40:55.108Z,980.10
2022-09-09T07:41:55.003Z,980.13
2022-09-09T07:42:54.979Z,980.15
2022-09-09T07:43:54.976Z,980.18
2022-09-09T07:44:54.961Z,980.16
2022-09-09T07:45:55.137Z,980.17
2022-09-09T07:46:54.981Z,980.22
2022-09-09T07:47:54.931Z,980.19
2022-09-09T07:48:54.920Z,980.13
2022-09-09T07:49:54.932Z,980.12
2022-09-09T07:50:54.896Z,980.16
2022-09-09T07:51:54.942Z,980.11
2022-09-09T07:52:54.876Z,980.11
2022-09-09T07:53:54.872Z,980.12
2022-09-09T07:54:54.884Z,980.14
2022-09-09T07:55:54.867Z,980.16
2022-09-09T07:56:54.839Z,980.19
2022-09-09T07:57:54.829Z,980.19
2022-09-09T07:58:54.815Z,980.19
2022-09-09T07:59:54.802Z,980.20
2022-09-09T08:00:54.797Z,980.19
2022-09-09T08:01:54.889Z,980.19
2022-09-09T08:02:54.814Z,980.24
2022-09-09T08:03:56.670Z,980.23
2022-09-09T08:04:54.761Z,980.21
2022-09-09T08:05:54.747Z,980.23
2022-09-09T08:06:54.762Z,980.21
2022-09-09T08:07:54.772Z,980.20
2022-09-09T08:08:54.713Z,980.25
2022-09-09T08:09:54.705Z,980.27
2022-09-09T08:10:54.692Z,980.26
2022-09-09T08:11:54.680Z,980.25
2022-09-09T08:13:14.731Z,980.27
2022-09-09T08:13:57.892Z,980.25
2022-09-09T08:14:55.942Z,980.28
2022-09-09T08:15:56.825Z,980.28
2022-09-09T08:16:55.186Z,980.28
2022-09-09T08:17:54.612Z,980.28
2022-09-09T08:18:54.628Z,980.29
2022-09-09T08:19:54.638Z,980.31
2022-09-09T08:20:54.598Z,980.28
2022-09-09T08:21:54.572Z,980.31
2022-09-09T08:22:54.594Z,980.29
2022-09-09T08:23:57.823Z,980.29
2022-09-09T08:24:54.573Z,980.29
2022-09-09T08:25:54.533Z,980.24
2022-09-09T08:26:54.541Z,980.33
2022-09-09T08:27:54.508Z,980.28
2022-09-09T08:28:54.520Z,980.25
2022-09-09T08:29:54.503Z,980.27
2022-09-09T08:30:54.625Z,980.26
2022-09-09T08:31:54.475Z,980.24
2022-09-09T08:32:54.466Z,980.28
2022-09-09T08:33:54.456Z,980.26
2022-09-09T08:34:54.844Z,980.30
2022-09-09T08:35:54.459Z,980.32
2022-09-09T08:36:54.421Z,980.25
2022-09-09T08:37:54.418Z,980.23
2022-09-09T08:38:54.444Z,980.17
2022-09-09T08:39:54.527Z,980.25
2022-09-09T08:40:54.397Z,980.22
2022-09-09T08:42:02.299Z,980.22
2022-09-09T08:42:54.368Z,980.26
2022-09-09T08:43:54.351Z,980.23
2022-09-09T08:44:54.342Z,980.21
2022-09-09T08:45:54.329Z,980.25
2022-09-09T08:46:54.337Z,980.15
2022-09-09T08:47:54.344Z,980.17
2022-09-09T08:48:54.294Z,980.18
2022-09-09T08:49:54.295Z,980.10
2022-09-09T08:50:54.274Z,980.25
2022-09-09T08:51:54.259Z,980.22
2022-09-09T08:52:54.277Z,980.24
2022-09-09T08:53:59.065Z,980.34
2022-09-09T08:54:54.240Z,980.21
2022-09-09T08:55:54.234Z,980.28
2022-09-09T08:56:54.215Z,980.32
2022-09-09T08:57:54.200Z,980.30
2022-09-09T08:58:54.226Z,980.27
2022-09-09T08:59:54.204Z,980.21
2022-09-09T09:00:54.168Z,980.24
2022-09-09T09:01:54.241Z,980.18
2022-09-09T09:02:54.147Z,980.26
2022-09-09T09:03:54.130Z,980.21
2022-09-09T09:04:54.262Z,980.19
2022-09-09T09:05:54.118Z,980.16
2022-09-09T09:06:54.142Z,980.29
2022-09-09T09:07:54.094Z,980.21
2022-09-09T09:08:54.087Z,980.24
2022-09-09T09:09:54.091Z,980.19
2022-09-09T09:10:54.073Z,980.14
2022-09-09T09:11:54.051Z,980.17
2022-09-09T09:12:54.051Z,980.19
2022-09-09T09:13:54.030Z,980.16
2022-09-09T09:14:54.060Z,980.17
2022-09-09T09:15:54.036Z,980.18
2022-09-09T09:16:54.004Z,980.18
2022-09-09T09:17:53.987Z,980.13
2022-09-09T09:18:53.980Z,980.14
2022-09-09T09:19:53.995Z,980.15
2022-09-09T09:20:53.977Z,980.22
2022-09-09T09:21:53.951Z,980.19
2022-09-09T09:22:53.943Z,980.16
2022-09-09T09:23:53.925Z,980.24
2022-09-09T09:24:53.926Z,980.20
2022-09-09T09:25:53.912Z,980.35
2022-09-09T09:26:53.922Z,980.30
2022-09-09T09:27:53.887Z,980.24
2022-09-09T09:28:53.882Z,980.44
2022-09-09T09:30:21.202Z,980.19
2022-09-09T09:30:53.895Z,980.22
2022-09-09T09:31:53.846Z,980.10
2022-09-09T09:32:53.872Z,980.10
2022-09-09T09:33:53.848Z,980.19
2022-09-09T09:34:53.824Z,980.16
2022-09-09T09:35:53.809Z,980.11
2022-09-09T09:36:53.801Z,980.14
2022-09-09T09:40:09.044Z,980.13
2022-09-09T09:40:53.763Z,980.11
2022-09-09T09:41:53.764Z,980.06
2022-09-09T09:42:53.742Z,980.05
2022-09-09T09:43:53.727Z,980.07
2022-09-09T09:44:53.741Z,980.26
2022-09-09T09:46:16.306Z,979.96
2022-09-09T09:46:53.738Z,980.02
2022-09-09T09:47:59.292Z,980.12
2022-09-09T09:48:53.711Z,980.13
2022-09-09T09:49:53.682Z,980.06
2022-09-09T09:50:53.657Z,980.04
2022-09-09T09:51:53.665Z,980.07
2022-09-09T09:52:53.640Z,980.10
2022-09-09T09:53:53.647Z,980.07
2022-09-09T09:54:53.623Z,980.05
2022-09-09T09:55:53.614Z,980.10
2022-09-09T09:56:53.625Z,980.17
2022-09-09T09:57:53.678Z,980.18
2022-09-09T09:58:53.581Z,980.24
2022-09-09T09:59:53.600Z,980.33
2022-09-09T10:00:53.549Z,980.20
2022-09-09T10:01:53.617Z,980.19
2022-09-09T10:02:53.581Z,980.18
2022-09-09T10:03:53.578Z,980.14
2022-09-09T10:04:53.571Z,980.10
2022-09-09T10:05:53.503Z,980.09
2022-09-09T10:06:53.489Z,980.04
2022-09-09T10:07:53.480Z,980.05
2022-09-09T10:08:53.465Z,980.09
2022-09-09T10:09:53.481Z,980.15
2022-09-09T10:10:53.472Z,980.16
2022-09-09T10:11:53.433Z,980.20
2022-09-09T10:12:53.424Z,980.19
2022-09-09T10:13:53.413Z,980.18
2022-09-09T10:14:53.412Z,980.16
2022-09-09T10:15:53.463Z,980.16
2022-09-09T10:16:53.392Z,980.17
2022-09-09T10:17:53.377Z,980.17
2022-09-09T10:18:53.363Z,980.10
2022-09-09T10:19:53.368Z,980.10
2022-09-09T10:20:53.369Z,980.11
2022-09-09T10:21:53.333Z,980.09
2022-09-09T10:22:53.328Z,980.07
2022-09-09T10:23:53.331Z,980.12
2022-09-09T10:24:53.314Z,980.01
2022-09-09T10:25:53.342Z,980.06
2022-09-09T10:26:53.298Z,980.00
2022-09-09T10:27:58.318Z,980.05
2022-09-09T10:28:53.294Z,980.02
2022-09-09T10:29:53.276Z,980.04
2022-09-09T10:30:53.336Z,979.94
2022-09-09T10:31:53.247Z,980.01
2022-09-09T10:32:53.237Z,979.95
2022-09-09T10:33:53.219Z,979.94
2022-09-09T10:34:53.223Z,979.85
2022-09-09T10:35:53.205Z,979.88
2022-09-09T10:36:53.203Z,979.82
2022-09-09T10:37:53.195Z,979.83
2022-09-09T10:38:53.161Z,979.87
2022-09-09T10:39:53.231Z,979.87
2022-09-09T10:40:53.142Z,979.75
2022-09-09T10:41:53.202Z,979.90
2022-09-09T10:42:53.129Z,979.81
2022-09-09T10:43:55.464Z,979.85
2022-09-09T10:44:53.130Z,979.81
2022-09-09T10:45:53.119Z,979.85
2022-09-09T10:46:53.091Z,979.88
2022-09-09T10:47:53.091Z,979.82
2022-09-09T10:48:53.057Z,979.81
2022-09-09T10:49:53.045Z,979.91
2022-09-09T10:51:03.944Z,979.86
2022-09-09T10:51:53.058Z,979.92
2022-09-09T10:52:53.021Z,979.91
2022-09-09T10:53:53.003Z,979.99
2022-09-09T10:54:52.994Z,980.14
2022-09-09T10:55:53.048Z,979.96
2022-09-09T10:57:00.852Z,980.04
2022-09-09T10:57:52.968Z,980.05
2022-09-09T10:58:52.976Z,979.96
2022-09-09T10:59:52.945Z,980.04
2022-09-09T11:00:57.878Z,980.06
2022-09-09T11:01:52.960Z,980.15
2022-09-09T11:02:52.950Z,980.10
2022-09-09T11:03:52.897Z,980.14
2022-09-09T11:04:52.897Z,980.17
2022-09-09T11:05:52.883Z,980.06
2022-09-09T11:06:52.872Z,980.11
2022-09-09T11:07:52.858Z,980.09
2022-09-09T11:08:55.114Z,980.12
2022-09-09T11:09:52.857Z,980.12
2022-09-09T11:10:52.839Z,980.15
2022-09-09T11:11:52.824Z,980.09
2022-09-09T11:12:52.812Z,980.08
2022-09-09T11:13:52.806Z,980.13
2022-09-09T11:14:52.827Z,980.07
2022-09-09T11:15:52.779Z,980.08
2022-09-09T11:16:52.812Z,980.06
2022-09-09T11:17:52.765Z,980.04
2022-09-09T11:18:52.756Z,980.03
2022-09-09T11:19:52.741Z,980.16
2022-09-09T11:20:52.773Z,980.06
2022-09-09T11:21:52.717Z,980.00
2022-09-09T11:22:52.713Z,980.12
2022-09-09T11:23:52.716Z,980.05
2022-09-09T11:24:52.690Z,979.94
2022-09-09T11:25:52.676Z,979.92
2022-09-09T11:26:52.704Z,979.92
2022-09-09T11:27:52.656Z,979.95
2022-09-09T11:28:52.652Z,979.93
2022-09-09T11:29:52.638Z,979.94
2022-09-09T11:30:56.640Z,979.97
2022-09-09T11:31:52.622Z,979.93
2022-09-09T11:32:52.633Z,979.89
2022-09-09T11:33:52.599Z,979.90
2022-09-09T11:34:52.604Z,979.90
2022-09-09T11:35:52.583Z,979.94
2022-09-09T11:36:52.599Z,979.85
2022-09-09T11:37:52.564Z,979.85
2022-09-09T11:38:52.561Z,979.89
2022-09-09T11:39:52.586Z,979.84
2022-09-09T11:40:52.537Z,979.91
2022-09-09T11:41:52.519Z,979.91
2022-09-09T11:42:52.530Z,979.96
2022-09-09T11:43:52.528Z,979.88
2022-09-09T11:44:52.496Z,979.96
2022-09-09T11:45:53.676Z,979.96
2022-09-09T11:46:52.466Z,980.02
2022-09-09T11:47:52.459Z,980.06
2022-09-09T11:48:52.466Z,980.00
2022-09-09T11:49:52.476Z,980.05
2022-09-09T11:50:52.481Z,980.07
2022-09-09T11:51:52.417Z,980.09
2022-09-09T11:52:52.411Z,980.08
2022-09-09T11:53:52.396Z,980.13
2022-09-09T11:54:52.410Z,980.18
2022-09-09T11:55:52.417Z,980.24
2022-09-09T11:56:52.376Z,980.27
2022-09-09T11:57:52.353Z,980.35
2022-09-09T11:58:52.347Z,980.30
2022-09-09T11:59:52.328Z,980.21
2022-09-09T12:00:52.423Z,980.26
2022-09-09T12:01:52.342Z,980.34
2022-09-09T12:02:52.315Z,980.27
2022-09-09T12:03:52.576Z,980.25
2022-09-09T12:04:52.404Z,980.34
2022-09-09T12:05:52.267Z,980.27
2022-09-09T12:06:52.264Z,980.26
2022-09-09T12:07:52.250Z,980.22
2022-09-09T12:08:52.241Z,980.30
2022-09-09T12:09:52.239Z,980.22
2022-09-09T12:10:52.248Z,980.25
2022-09-09T12:11:52.218Z,980.26
2022-09-09T12:12:52.206Z,980.22
2022-09-09T12:13:52.199Z,980.19
2022-09-09T12:14:52.181Z,980.15
2022-09-09T12:15:52.165Z,980.16
2022-09-09T12:16:52.208Z,980.17
2022-09-09T12:17:52.144Z,980.15
2022-09-09T12:18:52.228Z,980.15
2022-09-09T12:19:52.138Z,980.17
2022-09-09T12:20:52.120Z,980.11
2022-09-09T12:21:52.110Z,980.11
2022-09-09T12:22:52.107Z,980.08
2022-09-09T12:23:52.081Z,980.08
2022-09-09T12:24:52.072Z,980.09
2022-09-09T12:25:52.068Z,980.11
2022-09-09T12:26:52.052Z,980.15
2022-09-09T12:27:52.067Z,980.15
2022-09-09T12:28:52.025Z,980.04
2022-09-09T12:29:52.032Z,980.12
2022-09-09T12:30:52.018Z,980.11